createdAt,value
2023-04-24T00:01:31.021Z,42.91
2023-04-24T00:04:00.663Z,44.06
2023-04-24T00:06:34.436Z,44.02
2023-04-24T00:09:03.777Z,43.95
2023-04-24T00:11:30.756Z,44.39
2023-04-24T00:13:57.680Z,44.59
2023-04-24T00:16:26.974Z,45.53
2023-04-24T00:18:57.222Z,45.43
2023-04-24T00:21:26.808Z,46.09
2023-04-24T00:23:55.880Z,46.88
2023-04-24T00:26:22.777Z,46.42
2023-04-24T00:28:54.240Z,46.93
2023-04-24T00:31:20.935Z,46.39
2023-04-24T00:33:47.605Z,46.03
2023-04-24T00:36:14.790Z,46.35
2023-04-24T00:38:43.953Z,46.71
2023-04-24T00:41:10.591Z,46.66
2023-04-24T00:43:37.601Z,45.94
2023-04-24T00:46:04.670Z,46.51
2023-04-24T00:48:36.282Z,46.56
2023-04-24T00:51:03.311Z,46.11
2023-04-24T00:53:30.003Z,46.64
2023-04-24T00:55:59.213Z,46.14
2023-04-24T00:58:25.986Z,46.76
2023-04-24T01:00:54.285Z,46.21
2023-04-24T01:03:23.939Z,46.39
2023-04-24T01:05:50.843Z,45.79
2023-04-24T01:08:18.055Z,45.11
2023-04-24T01:10:47.437Z,45.06
2023-04-24T01:13:14.298Z,46.37
2023-04-24T01:15:44.959Z,46.45
2023-04-24T01:18:12.096Z,45.85
2023-04-24T01:20:41.792Z,45.68
2023-04-24T01:23:16.527Z,45.90
2023-04-24T01:25:44.589Z,44.40
2023-04-24T01:28:15.544Z,44.05
2023-04-24T01:30:47.524Z,43.48
2023-04-24T01:33:14.635Z,42.71
2023-04-24T01:35:43.524Z,42.22
2023-04-24T01:38:12.359Z,41.68
2023-04-24T01:40:38.987Z,42.00
2023-04-24T01:43:06.028Z,41.89
2023-04-24T01:45:32.752Z,41.43
2023-04-24T01:48:07.416Z,41.48
2023-04-24T01:50:34.190Z,41.74
2023-04-24T01:53:03.852Z,42.66
2023-04-24T01:55:32.841Z,45.44
2023-04-24T01:58:02.013Z,47.83
2023-04-24T02:00:28.746Z,48.99
2023-04-24T02:02:57.967Z,49.68
2023-04-24T02:05:27.439Z,49.76
2023-04-24T02:07:56.154Z,49.38
2023-04-24T02:10:23.274Z,47.93
2023-04-24T02:12:49.868Z,49.38
2023-04-24T02:15:19.127Z,51.42
2023-04-24T02:17:48.492Z,51.41
2023-04-24T02:20:15.238Z,50.72
2023-04-24T02:22:44.195Z,49.69
2023-04-24T02:25:11.191Z,49.21
2023-04-24T02:27:38.157Z,48.43
2023-04-24T02:30:11.106Z,50.09
2023-04-24T02:32:38.239Z,51.94
2023-04-24T02:35:10.502Z,50.83
2023-04-24T02:37:40.079Z,51.65
2023-04-24T02:40:07.165Z,52.22
2023-04-24T02:42:33.836Z,52.92
2023-04-24T02:45:00.715Z,52.99
2023-04-24T02:47:27.666Z,52.76
2023-04-24T02:49:54.286Z,53.19
2023-04-24T02:52:20.869Z,54.01
2023-04-24T02:54:47.570Z,54.10
2023-04-24T02:57:16.877Z,53.82
2023-04-24T02:59:46.020Z,54.47
2023-04-24T03:02:12.697Z,54.29
2023-04-24T03:04:41.505Z,55.45
2023-04-24T03:07:08.184Z,56.08
2023-04-24T03:09:35.184Z,56.84
2023-04-24T03:12:01.983Z,57.18
2023-04-24T03:14:28.663Z,57.44
2023-04-24T03:16:55.290Z,56.29
2023-04-24T03:19:21.973Z,56.10
2023-04-24T03:21:58.945Z,55.79
2023-04-24T03:24:29.461Z,56.22
2023-04-24T03:26:57.934Z,55.79
2023-04-24T03:29:43.298Z,56.33
2023-04-24T03:32:12.314Z,58.47
2023-04-24T03:34:44.798Z,57.31
2023-04-24T03:37:14.306Z,56.61
2023-04-24T03:39:46.476Z,57.02
2023-04-24T03:42:15.090Z,57.68
2023-04-24T03:44:58.205Z,58.44
2023-04-24T03:47:30.401Z,57.50
2023-04-24T03:50:00.622Z,57.27
2023-04-24T03:52:27.308Z,57.49
2023-04-24T03:54:56.657Z,58.13
2023-04-24T03:57:24.177Z,57.75
2023-04-24T04:00:13.109Z,56.95
2023-04-24T04:02:51.825Z,57.15
2023-04-24T04:05:19.146Z,56.64
2023-04-24T04:08:00.435Z,56.95
2023-04-24T04:10:29.125Z,56.84
2023-04-24T04:12:56.136Z,56.78
2023-04-24T04:15:23.056Z,56.76
2023-04-24T04:17:54.445Z,56.68
2023-04-24T04:20:21.205Z,57.25
2023-04-24T04:22:48.602Z,59.08
2023-04-24T04:25:21.718Z,57.77
2023-04-24T04:28:17.850Z,58.64
2023-04-24T04:30:51.524Z,57.28
2023-04-24T04:33:18.205Z,55.79
2023-04-24T04:35:50.738Z,55.67
2023-04-24T04:38:18.716Z,56.54
2023-04-24T04:41:01.926Z,56.44
2023-04-24T04:43:32.060Z,56.42
2023-04-24T04:46:01.901Z,57.40
2023-04-24T04:48:44.198Z,58.28
2023-04-24T04:51:10.917Z,57.79
2023-04-24T04:53:40.694Z,57.53
2023-04-24T04:56:07.979Z,57.12
2023-04-24T04:59:01.472Z,57.54
2023-04-24T05:01:30.744Z,56.70
2023-04-24T05:03:57.579Z,56.58
2023-04-24T05:06:27.624Z,56.14
2023-04-24T05:08:58.286Z,56.01
2023-04-24T05:11:37.900Z,56.20
2023-04-24T05:14:04.532Z,56.09
2023-04-24T05:16:41.361Z,55.78
2023-04-24T05:19:09.749Z,55.74
2023-04-24T05:21:40.687Z,55.87
2023-04-24T05:24:08.455Z,55.56
2023-04-24T05:26:56.583Z,55.75
2023-04-24T05:29:32.393Z,55.98
2023-04-24T05:32:01.790Z,55.17
2023-04-24T05:34:30.353Z,54.63
2023-04-24T05:36:57.706Z,54.59
2023-04-24T05:39:26.063Z,54.75
2023-04-24T05:41:54.031Z,54.79
2023-04-24T05:44:23.147Z,55.19
2023-04-24T05:46:50.326Z,54.57
2023-04-24T05:49:17.175Z,54.54
2023-04-24T05:51:45.855Z,54.70
2023-04-24T05:54:13.251Z,55.30
2023-04-24T05:56:43.255Z,54.89
2023-04-24T05:59:16.200Z,53.72
2023-04-24T06:01:45.817Z,52.41
2023-04-24T06:04:19.753Z,51.69
2023-04-24T06:06:46.947Z,51.90
2023-04-24T06:09:17.924Z,52.29
2023-04-24T06:11:47.282Z,51.55
2023-04-24T06:14:16.011Z,50.84
2023-04-24T06:17:02.602Z,51.24
2023-04-24T06:19:38.064Z,50.71
2023-04-24T06:22:04.967Z,50.54
2023-04-24T06:24:34.865Z,50.35
2023-04-24T06:27:02.510Z,50.17
2023-04-24T06:29:29.306Z,50.45
2023-04-24T06:31:56.473Z,50.29
2023-04-24T06:34:23.233Z,51.58
2023-04-24T06:36:52.674Z,51.66
2023-04-24T06:39:19.564Z,52.17
2023-04-24T06:41:49.805Z,51.45
2023-04-24T06:44:20.436Z,51.44
2023-04-24T06:46:47.104Z,51.92
2023-04-24T06:49:17.289Z,51.88
2023-04-24T06:51:44.018Z,52.37
2023-04-24T06:54:10.749Z,51.70
2023-04-24T06:56:37.403Z,51.99
2023-04-24T06:59:04.294Z,52.02
2023-04-24T07:01:33.925Z,51.72
2023-04-24T07:04:03.340Z,51.31
2023-04-24T07:06:32.862Z,51.70
2023-04-24T07:09:00.805Z,51.86
2023-04-24T07:11:30.464Z,52.13
2023-04-24T07:13:57.244Z,52.42
2023-04-24T07:16:26.840Z,51.56
2023-04-24T07:18:53.477Z,51.50
2023-04-24T07:21:22.437Z,51.72
2023-04-24T07:23:51.378Z,51.71
2023-04-24T07:26:21.662Z,51.45
2023-04-24T07:28:50.786Z,51.30
2023-04-24T07:31:20.064Z,51.71
2023-04-24T07:33:49.325Z,51.11
2023-04-24T07:36:20.042Z,51.14
2023-04-24T07:38:47.186Z,51.65
2023-04-24T07:41:14.324Z,51.69
2023-04-24T07:43:41.213Z,51.63
2023-04-24T07:46:09.058Z,51.42
2023-04-24T07:48:36.112Z,51.38
2023-04-24T07:51:02.905Z,51.21
2023-04-24T07:53:34.246Z,51.46
2023-04-24T07:56:01.034Z,51.47
2023-04-24T07:58:27.664Z,51.54
2023-04-24T08:00:59.247Z,51.49
2023-04-24T08:03:28.154Z,51.03
2023-04-24T08:05:54.912Z,51.49
2023-04-24T08:08:22.786Z,51.82
2023-04-24T08:10:49.864Z,52.42
2023-04-24T08:13:21.509Z,51.97
2023-04-24T08:15:48.111Z,52.57
2023-04-24T08:18:17.304Z,52.56
2023-04-24T08:20:47.057Z,53.83
2023-04-24T08:23:13.986Z,54.12
2023-04-24T08:25:42.961Z,53.67
2023-04-24T08:28:10.368Z,53.04
2023-04-24T08:30:39.719Z,53.23
2023-04-24T08:33:08.873Z,52.85
2023-04-24T08:35:35.637Z,52.78
2023-04-24T08:38:02.283Z,52.16
2023-04-24T08:40:32.344Z,52.12
2023-04-24T08:42:58.930Z,52.06
2023-04-24T08:45:26.982Z,52.01
2023-04-24T08:47:55.021Z,50.97
2023-04-24T08:50:22.452Z,51.40
2023-04-24T08:52:54.666Z,51.35
2023-04-24T08:55:21.743Z,50.78
2023-04-24T08:57:52.617Z,50.39
2023-04-24T09:00:21.849Z,49.86
2023-04-24T09:02:50.282Z,49.57
2023-04-24T09:05:20.216Z,48.91
2023-04-24T09:07:47.470Z,49.47
2023-04-24T09:10:16.547Z,49.81
2023-04-24T09:12:43.497Z,49.29
2023-04-24T09:15:11.824Z,49.05
2023-04-24T09:17:39.099Z,49.02
2023-04-24T09:20:06.274Z,49.02
2023-04-24T09:22:32.855Z,47.27
2023-04-24T09:25:07.809Z,46.63
2023-04-24T09:27:35.359Z,45.83
2023-04-24T09:30:04.584Z,45.94
2023-04-24T09:32:32.860Z,45.41
2023-04-24T09:35:09.183Z,45.60
2023-04-24T09:37:38.689Z,44.68
2023-04-24T09:40:12.855Z,44.86
2023-04-24T09:42:39.955Z,44.64
2023-04-24T09:47:41.752Z,43.80
2023-04-24T09:50:12.678Z,43.79
2023-04-24T09:52:46.483Z,43.46
2023-04-24T09:55:14.722Z,43.83
2023-04-24T09:57:54.458Z,43.60
2023-04-24T10:00:24.265Z,42.94
2023-04-24T10:02:51.846Z,43.38
2023-04-24T10:05:19.163Z,44.08
2023-04-24T10:07:50.076Z,43.56
2023-04-24T10:10:22.870Z,43.85
2023-04-24T10:12:49.612Z,43.24
2023-04-24T10:15:17.627Z,42.95
2023-04-24T10:17:44.499Z,43.40
2023-04-24T10:20:11.696Z,44.06
2023-04-24T10:22:38.437Z,43.95
2023-04-24T10:25:06.047Z,43.49
2023-04-24T10:27:35.080Z,43.34
2023-04-24T10:30:01.765Z,44.53
2023-04-24T10:32:28.669Z,43.65
2023-04-24T10:34:58.184Z,43.95
2023-04-24T10:37:25.644Z,43.97
2023-04-24T10:39:55.513Z,44.11
2023-04-24T10:42:25.691Z,43.07
2023-04-24T10:44:57.827Z,42.51
2023-04-24T10:47:27.464Z,43.14
2023-04-24T10:49:56.530Z,43.74
2023-04-24T10:52:27.346Z,44.69
2023-04-24T10:55:08.409Z,44.89
2023-04-24T10:57:39.508Z,44.85
2023-04-24T11:00:24.698Z,44.74
2023-04-24T11:02:59.470Z,44.85
2023-04-24T11:05:48.801Z,44.30
2023-04-24T11:08:17.139Z,43.94
2023-04-24T11:10:47.537Z,44.31
2023-04-24T11:13:17.801Z,45.54
2023-04-24T11:15:44.721Z,45.77
2023-04-24T11:18:14.645Z,45.46
2023-04-24T11:20:45.082Z,46.06
2023-04-24T11:23:12.774Z,45.82
2023-04-24T11:25:42.064Z,44.50
2023-04-24T11:28:09.116Z,43.78
2023-04-24T11:30:36.464Z,43.01
2023-04-24T11:33:08.587Z,42.69
2023-04-24T11:35:41.288Z,42.48
2023-04-24T11:38:23.517Z,43.19
2023-04-24T11:40:53.877Z,44.01
2023-04-24T11:43:20.958Z,44.76
2023-04-24T11:45:50.314Z,43.95
2023-04-24T11:48:24.728Z,44.81
2023-04-24T11:50:51.681Z,43.71
2023-04-24T11:53:19.984Z,43.27
2023-04-24T11:55:47.097Z,42.50
2023-04-24T11:58:13.764Z,42.60
2023-04-24T12:00:40.701Z,42.93
2023-04-24T12:03:10.102Z,41.66
2023-04-24T12:05:37.729Z,40.62
2023-04-24T12:08:05.008Z,40.22
2023-04-24T12:10:32.439Z,40.85
2023-04-24T12:12:59.408Z,41.74
2023-04-24T12:15:26.256Z,42.93
2023-04-24T12:17:53.660Z,44.02
2023-04-24T12:20:24.912Z,44.84
2023-04-24T12:22:55.375Z,44.85
2023-04-24T12:25:26.041Z,45.16
2023-04-24T12:27:56.206Z,45.98
2023-04-24T12:30:23.096Z,46.13
2023-04-24T12:32:50.872Z,46.89
2023-04-24T12:35:21.893Z,47.03
2023-04-24T12:37:48.899Z,46.86
2023-04-24T12:40:15.861Z,47.42
2023-04-24T12:42:52.013Z,48.20
2023-04-24T12:45:19.252Z,48.04
2023-04-24T12:47:48.320Z,48.25
2023-04-24T12:50:17.430Z,49.32
2023-04-24T12:52:44.409Z,49.49
2023-04-24T12:55:13.608Z,49.43
2023-04-24T12:57:41.078Z,49.63
2023-04-24T13:00:10.260Z,49.94
2023-04-24T13:02:37.713Z,50.61
2023-04-24T13:05:04.615Z,51.40
2023-04-24T13:07:31.288Z,52.01
2023-04-24T13:10:03.222Z,53.02
2023-04-24T13:12:29.860Z,53.46
2023-04-24T13:14:59.297Z,53.55
2023-04-24T13:17:28.570Z,53.04
2023-04-24T13:19:59.866Z,53.14
2023-04-24T13:22:29.529Z,53.49
2023-04-24T13:24:57.219Z,53.35
2023-04-24T13:27:23.830Z,52.63
2023-04-24T13:29:53.346Z,52.93
2023-04-24T13:32:20.070Z,54.22
2023-04-24T13:34:49.616Z,54.36
2023-04-24T13:37:16.674Z,55.52
2023-04-24T13:39:45.788Z,55.67
2023-04-24T13:42:13.786Z,56.87
2023-04-24T13:44:45.999Z,56.83
2023-04-24T13:47:12.585Z,57.75
2023-04-24T13:49:39.646Z,58.52
2023-04-24T13:52:06.307Z,59.52
2023-04-24T13:54:33.818Z,62.58
2023-04-24T13:57:01.522Z,64.96
2023-04-24T13:59:30.542Z,66.33
2023-04-24T14:01:57.317Z,69.98
2023-04-24T14:04:24.333Z,73.46
2023-04-24T14:06:53.674Z,75.04
2023-04-24T14:09:22.755Z,76.67
2023-04-24T14:11:56.007Z,76.17
2023-04-24T14:14:22.969Z,78.45
2023-04-24T14:16:49.514Z,82.16
2023-04-24T14:19:18.576Z,83.67
2023-04-24T14:21:46.316Z,85.02
2023-04-24T14:24:12.979Z,87.00
2023-04-24T14:26:41.944Z,87.50
2023-04-24T14:29:14.836Z,88.22
2023-04-24T14:31:44.626Z,87.98
2023-04-24T14:34:11.471Z,88.87
2023-04-24T14:36:44.341Z,89.15
2023-04-24T14:39:12.265Z,89.38
2023-04-24T14:41:40.334Z,89.01
2023-04-24T14:44:07.180Z,88.96
2023-04-24T14:46:34.005Z,88.23
2023-04-24T14:49:03.524Z,88.80
2023-04-24T14:51:30.234Z,84.72
2023-04-24T14:54:00.365Z,84.46
2023-04-24T14:56:29.526Z,84.04
2023-04-24T14:58:56.628Z,84.70
2023-04-24T15:01:25.665Z,84.44
2023-04-24T15:03:53.060Z,82.22
2023-04-24T15:06:21.290Z,83.14
2023-04-24T15:08:50.255Z,84.20
2023-04-24T15:11:24.576Z,83.82
2023-04-24T15:13:51.462Z,77.69
2023-04-24T15:16:18.345Z,77.16
2023-04-24T15:18:47.422Z,79.06
2023-04-24T15:21:16.215Z,77.44
2023-04-24T15:23:45.688Z,74.54
2023-04-24T15:26:15.038Z,73.67
2023-04-24T15:28:41.657Z,71.75
2023-04-24T15:31:10.635Z,70.54
2023-04-24T15:34:00.460Z,69.83
2023-04-24T15:36:32.396Z,70.49
2023-04-24T15:38:59.471Z,70.33
2023-04-24T15:41:26.045Z,70.86
2023-04-24T15:43:52.632Z,71.11
2023-04-24T15:46:25.460Z,69.62
2023-04-24T15:48:54.481Z,69.65
2023-04-24T15:51:21.140Z,68.74
2023-04-24T15:53:48.242Z,69.49
2023-04-24T15:56:18.028Z,69.87
2023-04-24T15:58:44.583Z,69.69
2023-04-24T16:01:11.362Z,70.16
2023-04-24T16:03:40.681Z,67.55
2023-04-24T16:06:09.773Z,67.72
2023-04-24T16:08:36.679Z,67.43
2023-04-24T16:11:06.083Z,67.05
2023-04-24T16:13:35.046Z,67.67
2023-04-24T16:16:01.931Z,67.74
2023-04-24T16:18:28.568Z,68.17
2023-04-24T16:20:59.912Z,68.16
2023-04-24T16:23:26.577Z,68.67
2023-04-24T16:25:58.195Z,68.48
2023-04-24T16:28:24.894Z,68.64
2023-04-24T16:30:51.518Z,69.20
2023-04-24T16:33:19.009Z,68.43
2023-04-24T16:35:46.762Z,68.45
2023-04-24T16:38:13.331Z,68.28
2023-04-24T16:40:40.293Z,68.58
2023-04-24T16:43:09.065Z,68.09
2023-04-24T16:45:35.751Z,68.56
2023-04-24T16:48:02.635Z,68.67
2023-04-24T16:50:31.718Z,68.28
2023-04-24T16:52:58.384Z,68.38
2023-04-24T16:55:25.521Z,68.03
2023-04-24T16:57:54.778Z,67.95
2023-04-24T17:00:24.071Z,67.92
2023-04-24T17:02:51.230Z,67.96
2023-04-24T17:05:19.452Z,67.83
2023-04-24T17:07:50.648Z,67.59
2023-04-24T17:10:17.346Z,68.23
2023-04-24T17:12:43.915Z,68.49
2023-04-24T17:15:10.834Z,68.89
2023-04-24T17:17:37.506Z,67.73
2023-04-24T17:20:14.994Z,67.87
2023-04-24T17:22:48.433Z,66.88
2023-04-24T17:25:15.221Z,67.51
2023-04-24T17:27:41.815Z,67.90
2023-04-24T17:30:11.014Z,68.10
2023-04-24T17:32:40.052Z,68.09
2023-04-24T17:35:07.332Z,68.36
2023-04-24T17:37:34.057Z,68.48
2023-04-24T17:40:05.428Z,68.48
2023-04-24T17:42:32.077Z,69.00
2023-04-24T17:44:58.754Z,69.46
2023-04-24T17:47:30.716Z,69.65
2023-04-24T17:49:59.554Z,69.61
2023-04-24T17:52:28.924Z,69.32
2023-04-24T17:54:55.763Z,69.40
2023-04-24T17:57:22.381Z,69.93
2023-04-24T17:59:48.917Z,70.13
2023-04-24T18:02:15.862Z,70.02
2023-04-24T18:04:43.165Z,70.11
2023-04-24T18:07:10.092Z,70.04
2023-04-24T18:09:39.460Z,68.69
2023-04-24T18:12:08.567Z,68.39
2023-04-24T18:14:37.521Z,68.22
2023-04-24T18:17:07.157Z,68.57
2023-04-24T18:19:34.149Z,68.92
2023-04-24T18:22:09.622Z,69.63
2023-04-24T18:24:40.144Z,69.88
2023-04-24T18:27:08.947Z,69.89
2023-04-24T18:29:37.901Z,69.35
2023-04-24T18:34:50.492Z,69.95
2023-04-24T18:37:17.189Z,69.69
2023-04-24T18:39:46.984Z,69.36
2023-04-24T18:42:15.988Z,69.47
2023-04-24T18:44:44.904Z,68.89
2023-04-24T18:47:12.060Z,68.38
2023-04-24T18:49:40.336Z,68.92
2023-04-24T18:52:12.614Z,69.63
2023-04-24T18:54:43.853Z,68.41
2023-04-24T18:57:11.284Z,68.65
2023-04-24T18:59:40.198Z,68.36
2023-04-24T19:02:07.737Z,67.94
2023-04-24T19:04:43.496Z,68.23
2023-04-24T19:07:10.234Z,68.39
2023-04-24T19:09:36.999Z,68.90
2023-04-24T19:12:03.751Z,68.60
2023-04-24T19:14:40.865Z,68.84
2023-04-24T19:17:17.347Z,67.99
2023-04-24T19:19:47.078Z,67.86
2023-04-24T19:22:13.762Z,67.80
2023-04-24T19:24:40.680Z,68.87
2023-04-24T19:27:09.618Z,69.07
2023-04-24T19:29:38.863Z,69.52
2023-04-24T19:32:10.345Z,69.56
2023-04-24T19:34:41.860Z,69.27
2023-04-24T19:37:13.710Z,68.33
2023-04-24T19:39:40.517Z,69.07
2023-04-24T19:42:07.736Z,69.74
2023-04-24T19:44:34.857Z,70.13
2023-04-24T19:47:01.591Z,70.05
2023-04-24T19:49:28.455Z,69.69
2023-04-24T19:51:55.375Z,70.00
2023-04-24T19:54:22.606Z,69.86
2023-04-24T19:56:51.580Z,70.02
2023-04-24T19:59:18.240Z,68.77
2023-04-24T20:01:47.550Z,68.97
2023-04-24T20:04:14.559Z,69.10
2023-04-24T20:06:41.276Z,69.35
2023-04-24T20:09:08.225Z,68.58
2023-04-24T20:11:41.007Z,68.74
2023-04-24T20:14:10.032Z,68.18
2023-04-24T20:16:37.664Z,68.58
2023-04-24T20:19:04.427Z,68.25
2023-04-24T20:21:34.005Z,67.61
2023-04-24T20:24:04.482Z,68.02
2023-04-24T20:26:31.647Z,68.87
2023-04-24T20:28:58.328Z,69.09
2023-04-24T20:31:25.147Z,69.11
2023-04-24T20:33:56.834Z,68.91
2023-04-24T20:36:25.846Z,68.28
2023-04-24T20:38:54.700Z,68.31
2023-04-24T20:41:21.396Z,68.29
2023-04-24T20:43:48.452Z,68.35
2023-04-24T20:46:15.163Z,68.00
2023-04-24T20:48:44.210Z,67.83
2023-04-24T20:51:13.820Z,68.40
2023-04-24T20:53:40.475Z,68.26
2023-04-24T20:56:09.178Z,68.31
2023-04-24T20:58:35.853Z,68.60
2023-04-24T21:01:02.899Z,68.70
2023-04-24T21:03:32.154Z,68.79
2023-04-24T21:05:58.853Z,69.02
2023-04-24T21:08:25.465Z,68.60
2023-04-24T21:10:52.070Z,68.23
2023-04-24T21:13:19.195Z,67.55
2023-04-24T21:15:45.986Z,68.07
2023-04-24T21:18:16.203Z,67.80
2023-04-24T21:20:45.501Z,67.61
2023-04-24T21:23:14.626Z,67.07
2023-04-24T21:25:41.203Z,66.64
2023-04-24T21:28:07.834Z,67.16
2023-04-24T21:30:37.366Z,67.21
2023-04-24T21:33:05.022Z,67.34
2023-04-24T21:35:34.618Z,67.04
2023-04-24T21:38:01.399Z,66.75
2023-04-24T21:40:28.508Z,66.78
2023-04-24T21:42:55.252Z,67.23
2023-04-24T21:45:24.338Z,67.61
2023-04-24T21:47:51.028Z,67.36
2023-04-24T21:50:18.026Z,67.81
2023-04-24T21:52:47.648Z,67.40
2023-04-24T21:55:14.417Z,67.72
2023-04-24T21:57:43.361Z,68.12
2023-04-24T22:00:11.450Z,68.17
2023-04-24T22:02:39.817Z,68.29
2023-04-24T22:05:07.341Z,68.21
2023-04-24T22:07:36.580Z,67.98
2023-04-24T22:10:06.116Z,68.04
2023-04-24T22:12:33.030Z,67.48
2023-04-24T22:15:00.425Z,67.38
2023-04-24T22:17:40.394Z,67.77
2023-04-24T22:20:21.615Z,68.04
2023-04-24T22:22:51.154Z,67.48
2023-04-24T22:25:18.742Z,67.26
2023-04-24T22:27:45.376Z,67.38
2023-04-24T22:30:12.283Z,66.95
2023-04-24T22:32:39.279Z,67.00
2023-04-24T22:35:06.685Z,66.68
2023-04-24T22:37:37.769Z,67.11
2023-04-24T22:40:05.538Z,67.66
2023-04-24T22:42:32.161Z,67.21
2023-04-24T22:45:02.474Z,67.61
2023-04-24T22:47:31.609Z,68.15
2023-04-24T22:50:00.841Z,68.89
2023-04-24T22:52:30.455Z,68.86
2023-04-24T22:54:57.257Z,69.45
2023-04-24T22:57:23.884Z,69.22
2023-04-24T22:59:50.672Z,69.51
2023-04-24T23:02:17.385Z,69.07
2023-04-24T23:04:48.876Z,69.03
2023-04-24T23:07:18.564Z,69.51
2023-04-24T23:09:47.360Z,69.77
2023-04-24T23:12:13.892Z,70.19
2023-04-24T23:14:40.767Z,70.14
2023-04-24T23:17:07.437Z,70.26
2023-04-24T23:19:34.206Z,70.33
2023-04-24T23:22:01.247Z,70.29
2023-04-24T23:24:30.625Z,70.34
2023-04-24T23:27:02.489Z,70.11
2023-04-24T23:29:31.266Z,70.59
2023-04-24T23:32:05.588Z,70.35
2023-04-24T23:34:34.036Z,69.93
2023-04-24T23:37:00.954Z,70.33
2023-04-24T23:39:27.636Z,70.03
2023-04-24T23:41:56.442Z,69.59
2023-04-24T23:44:23.062Z,69.42
2023-04-24T23:46:52.113Z,69.01
2023-04-24T23:49:18.813Z,69.28
2023-04-24T23:51:45.878Z,69.13
2023-04-24T23:54:13.004Z,69.04
2023-04-24T23:56:39.580Z,68.47
2023-04-24T23:59:06.291Z,68.45
